createdAt,value
2024-02-13T00:00:59.738Z,100210.56
2024-02-13T00:03:26.737Z,100208.38
2024-02-13T00:05:53.423Z,100216.03
2024-02-13T00:08:20.651Z,100216.16
2024-02-13T00:10:49.017Z,100224.69
2024-02-13T00:13:15.961Z,100222.59
2024-02-13T00:15:42.533Z,100220.59
2024-02-13T00:18:09.574Z,100233.63
2024-02-13T00:20:36.869Z,100226.13
2024-02-13T00:23:05.514Z,100236.00
2024-02-13T00:25:33.999Z,100244.34
2024-02-13T00:28:00.563Z,100245.19
2024-02-13T00:30:28.463Z,100239.03
2024-02-13T00:33:10.668Z,100252.53
2024-02-13T00:35:57.663Z,100246.63
2024-02-13T00:38:25.309Z,100256.38
2024-02-13T00:40:51.877Z,100266.00
2024-02-13T00:43:20.735Z,100263.97
2024-02-13T00:45:50.325Z,100266.88
2024-02-13T00:48:20.840Z,100273.88
2024-02-13T00:50:49.408Z,100263.63
2024-02-13T00:53:17.099Z,100261.56
2024-02-13T00:55:44.448Z,100267.59
2024-02-13T00:58:11.445Z,100274.25
2024-02-13T01:00:41.043Z,100279.28
2024-02-13T01:03:08.147Z,100277.38
2024-02-13T01:05:38.289Z,100276.63
2024-02-13T01:08:05.953Z,100287.88
2024-02-13T01:10:32.573Z,100291.00
2024-02-13T01:13:00.649Z,100299.91
2024-02-13T01:15:28.248Z,100295.50
2024-02-13T01:17:57.636Z,100304.22
2024-02-13T01:20:25.348Z,100302.22
2024-02-13T01:22:55.070Z,100292.22
2024-02-13T01:25:24.213Z,100293.16
2024-02-13T01:27:51.103Z,100288.81
2024-02-13T01:30:18.100Z,100289.06
2024-02-13T01:32:44.941Z,100293.03
2024-02-13T01:35:13.044Z,100303.16
2024-02-13T01:37:41.204Z,100297.75
2024-02-13T01:40:08.760Z,100305.47
2024-02-13T01:42:38.406Z,100306.31
2024-02-13T01:45:07.980Z,100313.28
2024-02-13T01:47:43.656Z,100316.31
2024-02-13T01:50:12.007Z,100319.91
2024-02-13T01:52:38.993Z,100323.06
2024-02-13T01:55:07.381Z,100318.94
2024-02-13T01:57:37.380Z,100321.75
2024-02-13T02:00:14.496Z,100324.91
2024-02-13T02:02:47.055Z,100318.47
2024-02-13T02:05:14.934Z,100319.44
2024-02-13T02:07:50.806Z,100323.78
2024-02-13T02:10:17.437Z,100324.03
2024-02-13T02:12:50.847Z,100326.34
2024-02-13T02:15:18.033Z,100332.47
2024-02-13T02:17:54.264Z,100334.78
2024-02-13T02:20:22.805Z,100341.38
2024-02-13T02:22:51.301Z,100342.59
2024-02-13T02:25:23.369Z,100349.19
2024-02-13T02:28:09.988Z,100349.28
2024-02-13T02:30:49.064Z,100353.03
2024-02-13T02:33:16.084Z,100351.94
2024-02-13T02:35:43.680Z,100358.00
2024-02-13T02:38:11.495Z,100355.81
2024-02-13T02:40:41.437Z,100359.88
2024-02-13T02:43:08.201Z,100355.41
2024-02-13T02:45:35.093Z,100362.03
2024-02-13T02:48:02.018Z,100365.66
2024-02-13T02:50:28.962Z,100362.50
2024-02-13T02:52:55.618Z,100372.72
2024-02-13T02:55:23.310Z,100367.22
2024-02-13T02:57:50.475Z,100366.41
2024-02-13T03:00:19.736Z,100366.34
2024-02-13T03:02:56.045Z,100370.22
2024-02-13T03:05:22.780Z,100375.19
2024-02-13T03:07:49.454Z,100383.13
2024-02-13T03:10:16.047Z,100382.47
2024-02-13T03:12:42.628Z,100378.91
2024-02-13T03:15:09.711Z,100391.91
2024-02-13T03:17:40.014Z,100395.13
2024-02-13T03:20:11.721Z,100392.38
2024-02-13T03:22:53.581Z,100389.44
2024-02-13T03:25:20.364Z,100393.47
2024-02-13T03:28:06.857Z,100400.72
2024-02-13T03:30:34.346Z,100397.72
2024-02-13T03:33:02.250Z,100408.50
2024-02-13T03:35:31.626Z,100410.63
2024-02-13T03:37:58.830Z,100410.41
2024-02-13T03:40:25.777Z,100407.78
2024-02-13T03:42:52.395Z,100412.75
2024-02-13T03:45:19.090Z,100409.16
2024-02-13T03:47:54.798Z,100414.88
2024-02-13T03:50:21.600Z,100422.88
2024-02-13T03:52:48.341Z,100417.91
2024-02-13T03:55:15.130Z,100417.41
2024-02-13T03:57:41.743Z,100418.84
2024-02-13T04:00:09.059Z,100416.66
2024-02-13T04:02:36.033Z,100419.88
2024-02-13T04:05:02.691Z,100425.53
2024-02-13T04:07:30.928Z,100419.63
2024-02-13T04:09:57.580Z,100424.28
2024-02-13T04:12:24.429Z,100425.06
2024-02-13T04:14:51.208Z,100425.47
2024-02-13T04:17:19.349Z,100422.25
2024-02-13T04:19:46.127Z,100426.75
2024-02-13T04:22:12.716Z,100429.03
2024-02-13T04:24:39.350Z,100434.81
2024-02-13T04:27:06.245Z,100443.41
2024-02-13T04:29:33.673Z,100441.56
2024-02-13T04:32:00.539Z,100441.75
2024-02-13T04:34:30.786Z,100434.31
2024-02-13T04:36:58.786Z,100437.53
2024-02-13T04:39:25.903Z,100436.72
2024-02-13T04:41:52.722Z,100437.09
2024-02-13T04:44:21.203Z,100443.78
2024-02-13T04:46:47.844Z,100435.34
2024-02-13T04:49:15.059Z,100439.22
2024-02-13T04:51:41.712Z,100432.66
2024-02-13T04:54:08.417Z,100431.88
2024-02-13T04:56:35.192Z,100436.91
2024-02-13T04:59:03.663Z,100430.97
2024-02-13T05:01:31.041Z,100431.09
2024-02-13T05:04:15.760Z,100426.13
2024-02-13T05:07:00.806Z,100436.31
2024-02-13T05:09:27.447Z,100436.28
2024-02-13T05:11:54.700Z,100427.81
2024-02-13T05:14:21.467Z,100432.81
2024-02-13T05:16:48.635Z,100436.31
2024-02-13T05:19:16.510Z,100437.16
2024-02-13T05:21:43.458Z,100440.72
2024-02-13T05:24:10.551Z,100438.06
2024-02-13T05:26:37.448Z,100442.94
2024-02-13T05:29:05.725Z,100439.50
2024-02-13T05:31:32.504Z,100431.81
2024-02-13T05:33:59.364Z,100445.63
2024-02-13T05:36:27.182Z,100437.47
2024-02-13T05:38:54.129Z,100435.50
2024-02-13T05:41:20.903Z,100443.69
2024-02-13T05:43:47.599Z,100436.06
2024-02-13T05:46:14.731Z,100438.19
2024-02-13T05:48:44.108Z,100439.34
2024-02-13T05:51:15.904Z,100440.69
2024-02-13T05:53:43.722Z,100437.16
2024-02-13T05:56:14.166Z,100448.13
2024-02-13T05:58:43.067Z,100451.94
2024-02-13T06:01:14.144Z,100449.53
2024-02-13T06:03:41.577Z,100453.53
2024-02-13T06:06:08.508Z,100456.41
2024-02-13T06:08:36.125Z,100453.81
2024-02-13T06:11:03.267Z,100454.38
2024-02-13T06:13:30.336Z,100465.06
2024-02-13T06:15:56.942Z,100457.66
2024-02-13T06:18:24.495Z,100470.19
2024-02-13T06:20:51.718Z,100472.66
2024-02-13T06:23:18.638Z,100466.00
2024-02-13T06:25:45.412Z,100461.25
2024-02-13T06:28:12.166Z,100463.66
2024-02-13T06:30:40.443Z,100463.41
2024-02-13T06:33:07.247Z,100464.44
2024-02-13T06:35:34.686Z,100462.81
2024-02-13T06:38:12.256Z,100478.63
2024-02-13T06:40:39.667Z,100479.97
2024-02-13T06:43:06.638Z,100475.66
2024-02-13T06:45:33.259Z,100474.72
2024-02-13T06:48:00.094Z,100479.78
2024-02-13T06:50:26.920Z,100482.44
2024-02-13T06:52:55.299Z,100488.69
2024-02-13T06:55:22.011Z,100489.63
2024-02-13T06:57:57.033Z,100489.53
2024-02-13T07:00:26.503Z,100491.75
2024-02-13T07:02:55.257Z,100498.69
2024-02-13T07:05:22.032Z,100493.56
2024-02-13T07:07:50.174Z,100496.56
2024-02-13T07:10:17.781Z,100501.38
2024-02-13T07:12:57.879Z,100504.50
2024-02-13T07:15:25.219Z,100515.22
2024-02-13T07:17:57.068Z,100515.47
2024-02-13T07:20:27.742Z,100519.44
2024-02-13T07:22:54.438Z,100518.94
2024-02-13T07:25:21.192Z,100517.28
2024-02-13T07:27:48.559Z,100514.63
2024-02-13T07:30:16.226Z,100521.72
2024-02-13T07:32:43.390Z,100531.22
2024-02-13T07:35:10.576Z,100524.66
2024-02-13T07:37:48.411Z,100528.72
2024-02-13T07:40:15.305Z,100536.25
2024-02-13T07:42:42.065Z,100537.84
2024-02-13T07:45:09.528Z,100544.13
2024-02-13T07:47:54.962Z,100544.41
2024-02-13T07:50:22.477Z,100557.13
2024-02-13T07:52:49.179Z,100555.91
2024-02-13T07:55:15.750Z,100554.78
2024-02-13T07:57:42.756Z,100556.22
2024-02-13T08:00:11.815Z,100553.59
2024-02-13T08:02:38.493Z,100565.03
2024-02-13T08:05:06.307Z,100566.44
2024-02-13T08:07:34.652Z,100564.56
2024-02-13T08:10:01.203Z,100575.56
2024-02-13T08:12:27.994Z,100574.94
2024-02-13T08:14:55.318Z,100571.00
2024-02-13T08:17:22.155Z,100570.22
2024-02-13T08:19:49.099Z,100571.84
2024-02-13T08:22:19.249Z,100574.34
2024-02-13T08:24:45.915Z,100568.97
2024-02-13T08:27:13.057Z,100576.03
2024-02-13T08:29:39.669Z,100575.47
2024-02-13T08:32:07.654Z,100576.22
2024-02-13T08:34:34.924Z,100584.59
2024-02-13T08:37:01.728Z,100574.00
2024-02-13T08:39:28.318Z,100580.41
2024-02-13T08:41:56.036Z,100581.84
2024-02-13T08:44:22.871Z,100581.13
2024-02-13T08:46:50.239Z,100590.56
2024-02-13T08:49:17.859Z,100583.22
2024-02-13T08:51:44.810Z,100587.88
2024-02-13T08:54:12.738Z,100588.72
2024-02-13T08:56:40.727Z,100592.50
2024-02-13T08:59:07.962Z,100593.97
2024-02-13T09:01:35.113Z,100596.94
2024-02-13T09:04:02.336Z,100600.69
2024-02-13T09:06:48.659Z,100598.63
2024-02-13T09:09:34.975Z,100612.34
2024-02-13T09:12:05.279Z,100615.50
2024-02-13T09:14:32.573Z,100624.38
2024-02-13T09:17:00.552Z,100614.44
2024-02-13T09:19:28.332Z,100622.88
2024-02-13T09:21:55.128Z,100619.56
2024-02-13T09:24:24.209Z,100616.66
2024-02-13T09:26:52.694Z,100620.16
2024-02-13T09:29:19.889Z,100618.97
2024-02-13T09:31:47.493Z,100624.75
2024-02-13T09:34:14.680Z,100627.63
2024-02-13T09:36:42.094Z,100621.66
2024-02-13T09:39:10.098Z,100619.59
2024-02-13T09:41:43.288Z,100623.66
2024-02-13T09:44:10.210Z,100625.91
2024-02-13T09:46:39.962Z,100623.31
2024-02-13T09:49:08.242Z,100627.41
2024-02-13T09:51:35.087Z,100628.94
2024-02-13T09:54:04.548Z,100631.28
2024-02-13T09:56:32.943Z,100633.94
2024-02-13T09:59:00.644Z,100631.88
2024-02-13T10:01:27.394Z,100641.00
2024-02-13T10:03:54.184Z,100641.06
2024-02-13T10:06:21.114Z,100635.50
2024-02-13T10:08:53.333Z,100648.53
2024-02-13T10:11:35.388Z,100639.50
2024-02-13T10:14:04.154Z,100648.72
2024-02-13T10:16:32.015Z,100651.97
2024-02-13T10:19:02.985Z,100655.00
2024-02-13T10:21:31.139Z,100650.47
2024-02-13T10:24:08.607Z,100653.53
2024-02-13T10:26:37.042Z,100657.47
2024-02-13T10:29:04.624Z,100651.91
2024-02-13T10:31:39.025Z,100650.84
2024-02-13T10:34:12.635Z,100655.09
2024-02-13T10:36:44.331Z,100658.28
2024-02-13T10:39:13.718Z,100659.81
2024-02-13T10:41:42.125Z,100671.88
2024-02-13T10:44:14.555Z,100663.56
2024-02-13T10:46:42.289Z,100668.88
2024-02-13T10:49:25.373Z,100672.84
2024-02-13T10:51:54.709Z,100674.34
2024-02-13T10:54:25.272Z,100673.22
2024-02-13T10:56:56.173Z,100676.25
2024-02-13T10:59:24.006Z,100673.66
2024-02-13T11:01:52.796Z,100676.13
2024-02-13T11:04:21.001Z,100668.53
2024-02-13T11:06:47.752Z,100665.28
2024-02-13T11:09:14.454Z,100662.47
2024-02-13T11:11:45.909Z,100662.13
2024-02-13T11:14:23.120Z,100662.09
2024-02-13T11:17:13.308Z,100658.81
2024-02-13T11:20:00.522Z,100666.97
2024-02-13T11:22:38.595Z,100670.69
2024-02-13T11:25:12.321Z,100673.19
2024-02-13T11:28:07.031Z,100665.22
2024-02-13T11:30:35.781Z,100664.56
2024-02-13T11:33:07.827Z,100669.09
2024-02-13T11:35:40.787Z,100665.91
2024-02-13T11:38:17.325Z,100663.63
2024-02-13T11:40:45.197Z,100666.31
2024-02-13T11:43:22.642Z,100661.13
2024-02-13T11:45:50.346Z,100674.59
2024-02-13T11:48:22.269Z,100667.84
2024-02-13T11:50:49.115Z,100677.47
2024-02-13T11:53:19.682Z,100671.56
2024-02-13T11:55:46.644Z,100668.28
2024-02-13T11:58:21.104Z,100663.44
2024-02-13T12:01:05.568Z,100670.97
2024-02-13T12:03:41.302Z,100669.69
2024-02-13T12:06:10.422Z,100668.00
2024-02-13T12:08:42.735Z,100669.72
2024-02-13T12:11:09.980Z,100674.91
2024-02-13T12:13:37.645Z,100680.69
2024-02-13T12:16:05.675Z,100673.63
2024-02-13T12:18:32.732Z,100677.66
2024-02-13T12:21:00.849Z,100674.06
2024-02-13T12:23:27.690Z,100676.69
2024-02-13T12:26:07.398Z,100674.09
2024-02-13T12:28:34.392Z,100670.13
2024-02-13T12:31:03.628Z,100668.44
2024-02-13T12:33:33.450Z,100667.69
2024-02-13T12:36:08.876Z,100668.16
2024-02-13T12:38:39.292Z,100674.72
2024-02-13T12:41:06.204Z,100663.47
2024-02-13T12:43:32.856Z,100673.66
2024-02-13T12:46:03.365Z,100663.56
2024-02-13T12:48:37.935Z,100661.94
2024-02-13T12:51:10.583Z,100662.88
2024-02-13T12:53:40.357Z,100665.19
2024-02-13T12:56:09.685Z,100671.19
2024-02-13T12:58:36.350Z,100665.41
2024-02-13T13:01:05.188Z,100672.16
2024-02-13T13:03:32.069Z,100675.94
2024-02-13T13:05:59.588Z,100672.16
2024-02-13T13:08:28.080Z,100668.50
2024-02-13T13:10:54.984Z,100676.38
2024-02-13T13:13:23.916Z,100669.16
2024-02-13T13:15:50.848Z,100662.56
2024-02-13T13:18:21.280Z,100671.44
2024-02-13T13:20:49.225Z,100656.66
2024-02-13T13:23:16.671Z,100661.16
2024-02-13T13:25:50.076Z,100663.72
2024-02-13T13:28:19.293Z,100659.91
2024-02-13T13:30:47.454Z,100652.06
2024-02-13T13:33:19.606Z,100658.19
2024-02-13T13:35:48.002Z,100668.56
2024-02-13T13:38:18.235Z,100661.50
2024-02-13T13:40:45.212Z,100664.38
2024-02-13T13:43:12.231Z,100660.16
2024-02-13T13:45:53.961Z,100656.59
2024-02-13T13:48:21.566Z,100662.59
2024-02-13T13:50:48.886Z,100668.28
2024-02-13T13:53:15.855Z,100665.41
2024-02-13T13:55:42.732Z,100673.38
2024-02-13T13:58:09.289Z,100677.78
2024-02-13T14:00:36.227Z,100674.03
2024-02-13T14:03:03.772Z,100674.88
2024-02-13T14:05:35.147Z,100677.94
2024-02-13T14:08:06.161Z,100678.66
2024-02-13T14:10:34.390Z,100683.63
2024-02-13T14:13:06.374Z,100679.38
2024-02-13T14:15:35.459Z,100684.81
2024-02-13T14:18:05.559Z,100680.72
2024-02-13T14:20:36.203Z,100678.09
2024-02-13T14:23:03.090Z,100680.03
2024-02-13T14:25:29.680Z,100676.94
2024-02-13T14:27:56.565Z,100679.38
2024-02-13T14:30:23.471Z,100678.50
2024-02-13T14:32:50.982Z,100681.91
2024-02-13T14:35:18.792Z,100691.00
2024-02-13T14:37:57.547Z,100693.25
2024-02-13T14:40:24.409Z,100692.28
2024-02-13T14:42:51.048Z,100694.88
2024-02-13T14:45:17.640Z,100702.81
2024-02-13T14:47:44.309Z,100699.06
2024-02-13T14:50:12.058Z,100694.44
2024-02-13T14:52:40.162Z,100698.81
2024-02-13T14:55:08.079Z,100696.28
2024-02-13T14:57:41.661Z,100699.69
2024-02-13T15:00:14.403Z,100705.78
2024-02-13T15:02:54.013Z,100694.63
2024-02-13T15:05:22.788Z,100702.75
2024-02-13T15:07:53.364Z,100698.06
2024-02-13T15:10:20.274Z,100703.59
2024-02-13T15:12:47.302Z,100706.09
2024-02-13T15:15:18.330Z,100712.25
2024-02-13T15:18:05.433Z,100708.34
2024-02-13T15:20:32.454Z,100712.53
2024-02-13T15:22:59.047Z,100711.00
2024-02-13T15:25:25.786Z,100711.53
2024-02-13T15:27:52.382Z,100711.97
2024-02-13T15:30:18.969Z,100710.06
2024-02-13T15:32:58.196Z,100712.38
2024-02-13T15:35:32.554Z,100706.44
2024-02-13T15:38:17.936Z,100703.00
2024-02-13T15:41:03.272Z,100709.00
2024-02-13T15:43:48.606Z,100711.47
2024-02-13T15:46:33.890Z,100710.31
2024-02-13T15:49:00.830Z,100711.53
2024-02-13T15:51:29.737Z,100711.78
2024-02-13T15:53:56.525Z,100710.63
2024-02-13T15:56:23.228Z,100710.63
2024-02-13T15:58:50.936Z,100715.41
2024-02-13T16:01:18.694Z,100713.72
2024-02-13T16:03:45.532Z,100710.50
2024-02-13T16:06:12.682Z,100717.38
2024-02-13T16:08:39.842Z,100719.97
2024-02-13T16:11:07.349Z,100729.47
2024-02-13T16:13:33.970Z,100726.31
2024-02-13T16:16:01.521Z,100725.81
2024-02-13T16:18:28.642Z,100726.03
2024-02-13T16:20:55.378Z,100731.00
2024-02-13T16:23:22.133Z,100731.94
2024-02-13T16:25:48.963Z,100734.38
2024-02-13T16:28:15.633Z,100736.25
2024-02-13T16:30:45.024Z,100740.13
2024-02-13T16:33:13.436Z,100742.03
2024-02-13T16:35:41.326Z,100740.19
2024-02-13T16:38:08.358Z,100734.13
2024-02-13T16:40:35.120Z,100742.72
2024-02-13T16:43:05.274Z,100744.78
2024-02-13T16:45:32.471Z,100755.72
2024-02-13T16:47:59.750Z,100752.06
2024-02-13T16:50:28.990Z,100760.78
2024-02-13T16:52:55.856Z,100758.44
2024-02-13T16:55:25.535Z,100759.84
2024-02-13T16:57:53.090Z,100755.13
2024-02-13T17:00:23.267Z,100756.75
2024-02-13T17:02:50.472Z,100759.94
2024-02-13T17:05:19.227Z,100756.94
2024-02-13T17:07:46.689Z,100752.03
2024-02-13T17:10:13.801Z,100756.00
2024-02-13T17:12:41.117Z,100761.19
2024-02-13T17:15:09.065Z,100763.19
2024-02-13T17:17:35.966Z,100760.56
2024-02-13T17:20:05.020Z,100758.09
2024-02-13T17:22:31.850Z,100764.66
2024-02-13T17:24:58.481Z,100770.47
2024-02-13T17:27:25.509Z,100764.44
2024-02-13T17:29:52.915Z,100770.47
2024-02-13T17:32:19.571Z,100772.88
2024-02-13T17:34:46.184Z,100771.31
2024-02-13T17:37:13.274Z,100774.81
2024-02-13T17:39:40.212Z,100770.31
2024-02-13T17:42:06.996Z,100779.63
2024-02-13T17:44:34.790Z,100778.19
2024-02-13T17:47:01.421Z,100779.91
2024-02-13T17:49:28.375Z,100778.72
2024-02-13T17:51:54.960Z,100776.88
2024-02-13T17:54:24.471Z,100771.91
2024-02-13T17:56:51.952Z,100777.47
2024-02-13T17:59:18.647Z,100773.38
2024-02-13T18:01:49.692Z,100780.50
2024-02-13T18:04:17.191Z,100779.78
2024-02-13T18:06:44.550Z,100772.50
2024-02-13T18:09:11.684Z,100766.84
2024-02-13T18:11:39.089Z,100765.53
2024-02-13T18:14:08.936Z,100762.97
2024-02-13T18:16:35.566Z,100770.00
2024-02-13T18:19:06.946Z,100771.06
2024-02-13T18:21:34.053Z,100767.91
2024-02-13T18:24:02.531Z,100770.25
2024-02-13T18:26:30.088Z,100770.97
2024-02-13T18:28:57.732Z,100767.56
2024-02-13T18:31:25.170Z,100771.09
2024-02-13T18:33:52.204Z,100767.69
2024-02-13T18:36:19.548Z,100770.72
2024-02-13T18:38:48.766Z,100769.47
2024-02-13T18:41:15.432Z,100760.50
2024-02-13T18:43:42.050Z,100761.28
2024-02-13T18:46:10.836Z,100756.34
2024-02-13T18:48:39.008Z,100753.16
2024-02-13T18:51:06.191Z,100753.53
2024-02-13T18:53:33.082Z,100757.34
2024-02-13T18:55:59.710Z,100760.31
2024-02-13T18:58:26.423Z,100752.31
2024-02-13T19:00:53.043Z,100754.13
2024-02-13T19:03:21.355Z,100753.53
2024-02-13T19:05:49.324Z,100743.97
2024-02-13T19:08:16.312Z,100750.06
2024-02-13T19:10:43.272Z,100746.66
2024-02-13T19:13:09.896Z,100746.28
2024-02-13T19:15:36.883Z,100748.56
2024-02-13T19:18:04.212Z,100741.00
2024-02-13T19:20:31.162Z,100747.28
2024-02-13T19:22:57.770Z,100736.50
2024-02-13T19:25:24.375Z,100744.22
2024-02-13T19:27:51.047Z,100741.56
2024-02-13T19:30:17.810Z,100740.25
2024-02-13T19:32:57.484Z,100740.59
2024-02-13T19:35:24.380Z,100733.22
2024-02-13T19:37:52.159Z,100726.31
2024-02-13T19:40:19.805Z,100729.88
2024-02-13T19:42:54.020Z,100734.13
2024-02-13T19:45:21.557Z,100729.97
2024-02-13T19:47:54.391Z,100736.19
2024-02-13T19:50:41.246Z,100732.44
2024-02-13T19:53:28.396Z,100732.66
2024-02-13T19:56:15.401Z,100726.84
2024-02-13T19:59:02.218Z,100736.34
2024-02-13T20:01:49.405Z,100729.38
2024-02-13T20:04:36.006Z,100734.94
2024-02-13T20:07:22.646Z,100730.28
2024-02-13T20:09:49.250Z,100728.59
2024-02-13T20:12:17.467Z,100728.44
2024-02-13T20:14:45.386Z,100733.34
2024-02-13T20:17:12.028Z,100737.69
2024-02-13T20:19:38.793Z,100735.75
2024-02-13T20:22:05.407Z,100736.72
2024-02-13T20:24:33.760Z,100740.31
2024-02-13T20:27:01.001Z,100735.44
2024-02-13T20:29:27.694Z,100742.09
2024-02-13T20:31:54.991Z,100744.00
2024-02-13T20:34:23.934Z,100740.16
2024-02-13T20:36:54.397Z,100727.91
2024-02-13T20:39:21.503Z,100736.84
2024-02-13T20:41:48.600Z,100735.06
2024-02-13T20:44:15.760Z,100726.25
2024-02-13T20:46:43.743Z,100734.69
2024-02-13T20:49:13.575Z,100737.94
2024-02-13T20:51:42.953Z,100730.00
2024-02-13T20:54:13.380Z,100732.09
2024-02-13T20:56:40.682Z,100723.09
2024-02-13T20:59:09.559Z,100738.13
2024-02-13T21:01:39.265Z,100736.84
2024-02-13T21:04:12.591Z,100727.78
2024-02-13T21:06:42.147Z,100727.19
2024-02-13T21:09:11.357Z,100722.16
2024-02-13T21:11:38.195Z,100728.38
2024-02-13T21:14:05.364Z,100727.47
2024-02-13T21:16:34.512Z,100723.81
2024-02-13T21:19:02.881Z,100720.81
2024-02-13T21:21:48.156Z,100725.78
2024-02-13T21:24:14.953Z,100716.13
2024-02-13T21:26:41.738Z,100715.53
2024-02-13T21:29:09.026Z,100711.25
2024-02-13T21:31:37.582Z,100714.84
2024-02-13T21:34:06.887Z,100705.50
2024-02-13T21:36:35.743Z,100704.28
2024-02-13T21:39:08.519Z,100710.69
2024-02-13T21:41:36.692Z,100698.38
2024-02-13T21:44:04.091Z,100703.22
2024-02-13T21:46:31.232Z,100706.44
2024-02-13T21:48:58.364Z,100703.25
2024-02-13T21:51:25.779Z,100698.38
2024-02-13T21:53:53.591Z,100704.19
2024-02-13T21:56:21.155Z,100700.41
2024-02-13T21:58:48.929Z,100698.75
2024-02-13T22:01:16.669Z,100698.88
2024-02-13T22:03:43.482Z,100695.94
2024-02-13T22:06:11.710Z,100693.78
2024-02-13T22:08:38.461Z,100695.81
2024-02-13T22:11:05.086Z,100690.03
2024-02-13T22:13:31.673Z,100691.69
2024-02-13T22:15:59.113Z,100693.69
2024-02-13T22:18:26.503Z,100692.34
2024-02-13T22:20:53.594Z,100684.00
2024-02-13T22:23:20.323Z,100681.06
2024-02-13T22:25:46.877Z,100679.88
2024-02-13T22:28:14.929Z,100687.28
2024-02-13T22:30:43.209Z,100686.25
2024-02-13T22:33:22.822Z,100677.81
2024-02-13T22:35:49.582Z,100679.91
2024-02-13T22:38:16.237Z,100677.06
2024-02-13T22:40:42.878Z,100676.06
2024-02-13T22:43:09.492Z,100676.66
2024-02-13T22:45:36.334Z,100681.16
2024-02-13T22:48:03.252Z,100682.69
2024-02-13T22:50:30.583Z,100673.50
2024-02-13T22:52:59.632Z,100673.69
2024-02-13T22:55:30.117Z,100667.53
2024-02-13T22:57:58.411Z,100679.81
2024-02-13T23:00:49.531Z,100676.84
2024-02-13T23:03:17.328Z,100674.31
2024-02-13T23:05:54.826Z,100678.31
2024-02-13T23:08:22.382Z,100676.31
2024-02-13T23:10:49.218Z,100673.81
2024-02-13T23:13:17.991Z,100681.00
2024-02-13T23:15:44.586Z,100668.03
2024-02-13T23:18:13.066Z,100669.00
2024-02-13T23:20:40.347Z,100667.81
2024-02-13T23:23:07.462Z,100658.88
2024-02-13T23:25:36.379Z,100656.91
2024-02-13T23:28:07.310Z,100657.06
2024-02-13T23:30:36.006Z,100653.38
2024-02-13T23:33:03.154Z,100663.88
2024-02-13T23:35:29.980Z,100654.31
2024-02-13T23:37:56.678Z,100662.75
2024-02-13T23:40:23.863Z,100660.09
2024-02-13T23:42:52.740Z,100662.63
2024-02-13T23:45:19.494Z,100658.31
2024-02-13T23:47:47.849Z,100658.91
2024-02-13T23:50:14.812Z,100653.91
2024-02-13T23:52:42.372Z,100653.81
2024-02-13T23:55:12.317Z,100651.69
2024-02-13T23:57:41.549Z,100647.00
